Time;durP1;ratioP1;P1;durP2;ratioP2;P2;SDS_P1;SDS_P2;PMS_P1;PMS_P2;Temp;Humidity;BMP_temperature;BMP_pressure;BME280_temperature;BME280_humidity;BME280_pressure;Samples;Min_cycle;Max_cycle;Signal;HPM_P1;HPM_P2
2022/12/25 00:02:21;;;;;;;3.33;1.95;;;;;;;6.92;100.00;95961.63;5081927;28;24833;-71
2022/12/25 00:04:47;;;;;;;3.53;2.38;;;;;;;6.87;100.00;95958.44;5074765;28;24446;-71
2022/12/25 00:07:14;;;;;;;4.93;2.28;;;;;;;6.89;100.00;95960.94;5066696;28;24434;-71
2022/12/25 00:09:40;;;;;;;4.50;3.00;;;;;;;6.83;100.00;95953.50;5074838;28;24438;-71
2022/12/25 00:12:08;;;;;;;10.05;3.70;;;;;;;6.85;100.00;95947.38;5074371;28;24999;-71
2022/12/25 00:14:34;;;;;;;10.00;4.10;;;;;;;6.88;100.00;95944.66;5080140;28;20764;-71
2022/12/25 00:17:01;;;;;;;4.18;2.35;;;;;;;6.94;100.00;95948.72;5069557;28;24450;-71
2022/12/25 00:19:27;;;;;;;4.22;1.90;;;;;;;6.93;100.00;95957.31;5071101;28;24995;-71
2022/12/25 00:21:54;;;;;;;2.75;1.67;;;;;;;6.90;100.00;95950.59;5073927;28;24451;-71
2022/12/25 00:24:20;;;;;;;2.78;1.98;;;;;;;6.91;100.00;95943.69;5077093;28;24461;-71
2022/12/25 00:26:47;;;;;;;3.53;1.60;;;;;;;6.91;100.00;95949.69;5073687;28;24454;-71
2022/12/25 00:29:14;;;;;;;2.47;1.60;;;;;;;6.93;100.00;95939.31;5071794;28;20780;-71
2022/12/25 00:31:41;;;;;;;2.75;1.52;;;;;;;6.94;100.00;95939.25;5078049;28;20826;-71
2022/12/25 00:34:07;;;;;;;2.88;1.77;;;;;;;7.01;100.00;95947.53;5080241;28;24435;-71
2022/12/25 00:36:34;;;;;;;2.30;1.47;;;;;;;6.90;100.00;95947.19;5073993;28;24508;-71
2022/12/25 00:39:00;;;;;;;4.70;1.80;;;;;;;6.86;100.00;95946.50;5074673;28;20838;-71
2022/12/25 00:44:13;;;;;;;3.22;1.48;;;;;;;6.85;100.00;95941.41;5076351;28;20691;-71
2022/12/25 00:46:42;;;;;;;2.35;1.30;;;;;;;6.84;100.00;95943.13;5068132;28;20838;-71
2022/12/25 00:49:08;;;;;;;2.75;1.40;;;;;;;6.85;100.00;95944.81;5077632;28;20759;-71
2022/12/25 00:51:35;;;;;;;2.88;1.50;;;;;;;6.86;100.00;95938.78;5079994;28;20780;-71
2022/12/25 00:54:01;;;;;;;2.55;1.17;;;;;;;6.91;100.00;95941.13;5078392;28;24813;-71
2022/12/25 00:56:28;;;;;;;2.20;1.30;;;;;;;6.94;100.00;95936.66;5076889;28;20776;-71
2022/12/25 00:58:55;;;;;;;3.13;1.60;;;;;;;6.94;100.00;95944.41;5068669;28;21135;-71
2022/12/25 01:01:21;;;;;;;1.65;1.13;;;;;;;6.95;100.00;95940.91;5080601;28;20786;-71
2022/12/25 01:03:49;;;;;;;4.10;1.45;;;;;;;6.94;100.00;95939.25;5072818;28;24457;-71
2022/12/25 01:06:16;;;;;;;2.20;1.50;;;;;;;6.94;100.00;95943.56;5068498;28;24496;-71
2022/12/25 01:10:21;;;;;;;3.40;1.70;;;;;;;6.95;100.00;95937.50;5073116;28;20792;-71
2022/12/25 01:11:29;;;;;;;2.80;1.35;;;;;;;6.94;100.00;95936.66;5070875;28;21335;-71
2022/12/25 01:13:56;;;;;;;2.37;1.63;;;;;;;6.99;100.00;95934.72;5080361;28;24528;-71
2022/12/25 01:16:22;;;;;;;2.25;1.58;;;;;;;6.94;100.00;95931.53;5081859;28;24997;-71
2022/12/25 01:18:50;;;;;;;4.07;1.43;;;;;;;6.88;100.00;95949.81;5076280;28;24446;-71
2022/12/25 01:21:19;;;;;;;2.08;1.30;;;;;;;6.83;100.00;95940.66;5071804;28;24438;-71
2022/12/25 01:23:47;;;;;;;2.15;1.30;;;;;;;6.86;100.00;95945.63;5073759;28;20808;-71
2022/12/25 01:26:15;;;;;;;3.20;1.55;;;;;;;6.92;100.00;95943.63;5079863;28;24442;-71
2022/12/25 01:28:42;;;;;;;2.13;1.10;;;;;;;6.89;100.00;95940.34;5064962;28;20780;-71
2022/12/25 01:31:10;;;;;;;2.10;1.15;;;;;;;6.87;100.00;95939.59;5070780;28;24455;-71
2022/12/25 01:33:36;;;;;;;3.78;1.35;;;;;;;6.76;100.00;95950.38;5074289;28;20835;-71
2022/12/25 01:36:11;;;;;;;2.67;1.92;;;;;;;6.69;100.00;95948.97;5087803;28;24434;-71
2022/12/25 01:38:38;;;;;;;3.13;1.88;;;;;;;6.74;100.00;95960.72;5080996;28;20703;-71
2022/12/25 01:41:04;;;;;;;2.30;1.52;;;;;;;6.71;100.00;95950.59;5082962;28;20770;-71
2022/12/25 01:43:32;;;;;;;2.85;1.70;;;;;;;6.71;100.00;95952.31;5066064;28;25003;-71
2022/12/25 01:46:02;;;;;;;2.13;1.40;;;;;;;6.72;100.00;95943.69;5071679;28;24439;-71
2022/12/25 01:48:32;;;;;;;4.85;1.90;;;;;;;6.71;100.00;95937.72;5065503;28;24461;-71
2022/12/25 01:51:01;;;;;;;3.58;2.00;;;;;;;6.75;100.00;95941.81;5077070;28;20788;-71
2022/12/25 01:53:29;;;;;;;1.87;1.47;;;;;;;6.78;100.00;95944.22;5070709;28;24531;-71
2022/12/25 01:56:00;;;;;;;2.47;1.67;;;;;;;6.77;100.00;95942.56;5083720;28;20775;-71
2022/12/25 01:58:27;;;;;;;2.80;1.60;;;;;;;6.75;100.00;95938.41;5069781;28;24451;-71
2022/12/25 02:00:54;;;;;;;3.97;1.48;;;;;;;6.71;100.00;95944.56;5073009;28;24435;-71
2022/12/25 02:03:21;;;;;;;3.10;1.67;;;;;;;6.68;100.00;95945.56;5062326;28;25039;-71
2022/12/25 02:05:48;;;;;;;3.70;1.92;;;;;;;6.77;100.00;95934.03;5073990;28;21169;-71
2022/12/25 02:08:16;;;;;;;1.88;1.40;;;;;;;6.76;100.00;95938.34;5067661;28;24446;-71
2022/12/25 02:10:45;;;;;;;2.35;1.70;;;;;;;6.74;100.00;95944.44;5081842;28;20795;-71
2022/12/25 02:13:12;;;;;;;3.03;1.88;;;;;;;6.69;100.00;95936.94;5069632;28;20828;-71
2022/12/25 02:15:47;;;;;;;3.53;1.80;;;;;;;6.73;100.00;95935.06;5082107;28;24512;-71
2022/12/25 02:18:20;;;;;;;1.63;1.30;;;;;;;6.70;100.00;95925.72;5071853;28;20677;-71
2022/12/25 02:21:08;;;;;;;2.42;1.73;;;;;;;6.66;100.00;95928.53;5070004;28;21214;-71
2022/12/25 02:24:07;;;;;;;2.92;1.88;;;;;;;6.73;100.00;95919.63;5064579;28;20657;-71
2022/12/25 02:26:55;;;;;;;2.92;1.88;;;;;;;6.73;100.00;95917.03;5086713;28;24446;-71
2022/12/25 02:29:30;;;;;;;3.15;1.75;;;;;;;6.70;100.00;95918.00;5069204;28;20737;-71
2022/12/25 02:32:02;;;;;;;2.80;2.00;;;;;;;6.67;100.00;95932.75;5076084;28;20711;-71
2022/12/25 02:34:34;;;;;;;4.97;2.42;;;;;;;6.57;100.00;95931.53;5063255;28;20712;-71
2022/12/25 02:37:07;;;;;;;3.53;1.92;;;;;;;6.51;100.00;95922.31;5070172;28;21319;-71
2022/12/25 02:39:59;;;;;;;2.65;2.00;;;;;;;6.49;100.00;95927.53;5074821;28;20683;-71
2022/12/25 03:07:40;;;;;;;2.42;1.90;;;;;;;6.42;100.00;95907.31;5069519;28;20691;-71
2022/12/25 03:12:57;;;;;;;2.08;1.80;;;;;;;6.45;100.00;95894.28;5067026;28;24536;-71
2022/12/25 03:18:13;;;;;;;3.17;2.10;;;;;;;6.44;100.00;95884.91;5070938;28;24462;-71
2022/12/25 03:28:57;;;;;;;2.58;1.90;;;;;;;6.22;100.00;95890.16;5079173;28;20759;-71
2022/12/25 03:31:29;;;;;;;3.00;2.00;;;;;;;6.14;100.00;95881.94;5071083;28;24994;-71
2022/12/25 04:38:24;;;;;;;4.13;1.88;;;;;;;6.19;100.00;95868.00;5073529;28;24457;-71
2022/12/25 04:40:52;;;;;;;2.33;1.70;;;;;;;6.23;100.00;95864.38;5079607;28;24449;-71
2022/12/25 04:43:18;;;;;;;3.03;1.90;;;;;;;6.23;100.00;95864.38;5071534;28;24460;-71
2022/12/25 04:45:52;;;;;;;2.40;1.80;;;;;;;6.23;100.00;95858.38;5071810;28;24512;-71
2022/12/25 04:48:18;;;;;;;3.20;1.80;;;;;;;6.23;100.00;95858.38;5075239;28;20830;-71
2022/12/25 04:50:45;;;;;;;2.70;1.98;;;;;;;6.23;100.00;95859.25;5077739;28;25086;-71
2022/12/25 04:53:11;;;;;;;1.52;1.42;;;;;;;6.26;100.00;95859.06;5077070;28;25008;-71
2022/12/25 04:55:38;;;;;;;2.72;1.85;;;;;;;6.27;100.00;95863.34;5076735;28;25007;-71
2022/12/25 04:58:06;;;;;;;3.38;1.58;;;;;;;6.28;100.00;95851.31;5075694;28;25027;-71
2022/12/25 05:00:32;;;;;;;2.97;1.90;;;;;;;6.27;100.00;95847.09;5073677;28;24451;-71
2022/12/25 05:02:59;;;;;;;3.03;1.95;;;;;;;6.29;100.00;95850.41;5069342;28;24449;-71
2022/12/25 05:05:25;;;;;;;2.67;1.85;;;;;;;6.37;100.00;95844.91;5068606;28;24802;-71
2022/12/25 05:07:52;;;;;;;2.17;1.98;;;;;;;6.34;100.00;95850.19;5070561;28;24453;-71
2022/12/25 05:10:18;;;;;;;3.10;1.93;;;;;;;6.34;100.00;95843.34;5088046;28;24521;-71
2022/12/25 05:12:45;;;;;;;2.08;1.77;;;;;;;6.33;100.00;95844.22;5082382;28;24446;-71
2022/12/25 05:15:13;;;;;;;1.98;1.50;;;;;;;6.34;100.00;95852.75;5072167;28;24493;-71
2022/12/25 05:17:39;;;;;;;2.67;2.00;;;;;;;6.36;100.00;95853.53;5071459;28;24443;-71
2022/12/25 05:20:07;;;;;;;2.50;1.85;;;;;;;6.34;100.00;95852.75;5080806;28;24434;-71
2022/12/25 05:22:33;;;;;;;2.50;2.08;;;;;;;6.35;100.00;95852.72;5079604;28;20772;-71
2022/12/25 05:25:00;;;;;;;2.65;2.05;;;;;;;6.36;100.00;95858.69;5081266;28;24441;-71
2022/12/25 05:27:26;;;;;;;3.20;1.80;;;;;;;6.35;100.00;95852.72;5075372;28;24442;-71
2022/12/25 05:29:53;;;;;;;3.38;1.70;;;;;;;6.42;100.00;95855.84;5072149;28;24453;-71
2022/12/25 05:32:20;;;;;;;2.30;1.70;;;;;;;6.44;100.00;95856.59;5071037;28;24450;-71
2022/12/25 05:34:47;;;;;;;2.35;2.05;;;;;;;6.50;100.00;95853.75;5080652;28;20809;-71
2022/12/25 05:37:13;;;;;;;2.05;1.83;;;;;;;6.46;100.00;95850.50;5071837;28;25031;-71
2022/12/25 05:39:40;;;;;;;2.72;2.10;;;;;;;6.59;100.00;95849.91;5069086;28;24442;-71
2022/12/25 05:42:06;;;;;;;2.40;2.00;;;;;;;6.62;100.00;95834.34;5070472;28;24442;-71
2022/12/25 05:44:33;;;;;;;3.87;1.87;;;;;;;6.58;100.00;95831.06;5071736;28;24461;-71
2022/12/25 05:46:59;;;;;;;2.08;1.70;;;;;;;6.61;100.00;95832.69;5073916;28;24434;-71
2022/12/25 05:49:27;;;;;;;2.35;1.95;;;;;;;6.62;100.00;95830.03;5071050;28;24438;-71
2022/12/25 05:51:53;;;;;;;2.80;2.13;;;;;;;6.59;100.00;95824.19;5077583;28;24457;-71
2022/12/25 05:54:20;;;;;;;3.37;2.13;;;;;;;6.59;100.00;95825.03;5080339;28;24457;-71
2022/12/25 05:56:46;;;;;;;2.10;1.83;;;;;;;6.66;100.00;95820.44;5075016;28;20951;-71
2022/12/25 05:59:13;;;;;;;2.10;1.90;;;;;;;6.67;100.00;95819.50;5075160;28;24465;-71
2022/12/25 06:01:39;;;;;;;5.80;2.33;;;;;;;6.69;100.00;95825.44;5069584;28;20792;-71
2022/12/25 06:04:06;;;;;;;2.30;1.95;;;;;;;6.68;100.00;95824.59;5069922;28;20777;-70
2022/12/25 06:06:33;;;;;;;5.85;2.65;;;;;;;6.73;100.00;95824.38;5065171;28;24449;-72
2022/12/25 06:09:00;;;;;;;3.22;2.70;;;;;;;6.66;100.00;95825.56;5071003;28;21394;-72
2022/12/25 06:11:26;;;;;;;4.00;2.95;;;;;;;6.66;100.00;95823.84;5071577;28;21343;-71
2022/12/25 06:13:53;;;;;;;3.85;2.60;;;;;;;6.65;100.00;95827.31;5080463;28;21321;-71
2022/12/25 06:16:20;;;;;;;3.17;2.58;;;;;;;6.67;100.00;95822.91;5070582;28;24439;-71
2022/12/25 06:18:48;;;;;;;2.70;2.50;;;;;;;6.72;100.00;95818.41;5061542;28;24447;-71
2022/12/25 06:21:16;;;;;;;6.32;2.90;;;;;;;6.72;100.00;95815.84;5069806;28;21101;-72
2022/12/25 06:23:44;;;;;;;3.22;2.53;;;;;;;6.70;100.00;95819.38;5076056;28;20782;-72
2022/12/25 06:26:13;;;;;;;2.90;2.20;;;;;;;6.66;100.00;95817.84;5083654;28;24430;-71
2022/12/25 06:28:40;;;;;;;2.72;2.42;;;;;;;6.65;100.00;95822.16;5066245;28;20776;-71
2022/12/25 06:31:07;;;;;;;2.25;2.05;;;;;;;6.68;100.00;95813.47;5065582;28;24462;-71
2022/12/25 06:33:34;;;;;;;3.42;2.25;;;;;;;6.67;100.00;95812.63;5070744;28;20804;-72
2022/12/25 06:36:04;;;;;;;2.47;1.95;;;;;;;6.59;100.00;95821.63;5076822;28;24446;-72
2022/12/25 06:38:31;;;;;;;3.42;1.98;;;;;;;6.60;100.00;95819.00;5070553;28;20723;-71
2022/12/25 06:41:04;;;;;;;2.47;1.95;;;;;;;6.62;100.00;95824.06;5071537;28;24449;-71
2022/12/25 06:43:30;;;;;;;4.75;3.33;;;;;;;6.62;100.00;95822.31;5068782;28;20741;-71
2022/12/25 06:46:01;;;;;;;16.37;9.03;;;;;;;6.58;100.00;95825.09;5070814;28;24992;-71
2022/12/25 06:48:27;;;;;;;64.32;34.83;;;;;;;6.49;100.00;95821.22;5069349;28;24449;-71
2022/12/25 06:50:54;;;;;;;11.43;7.67;;;;;;;6.43;100.00;95822.31;5071057;28;24488;-71
2022/12/25 06:53:20;;;;;;;6.68;4.50;;;;;;;6.49;100.00;95823.78;5069869;28;20790;-71
2022/12/25 06:55:47;;;;;;;2.95;2.47;;;;;;;6.31;100.00;95822.88;5076152;28;20772;-71
2022/12/25 06:58:15;;;;;;;2.60;2.22;;;;;;;6.27;100.00;95824.75;5076408;28;20783;-71
2022/12/25 07:00:41;;;;;;;3.27;2.20;;;;;;;6.22;100.00;95825.84;5069932;28;20841;-71
2022/12/25 07:03:08;;;;;;;3.15;2.20;;;;;;;6.19;100.00;95821.72;5078979;28;20780;-71
2022/12/25 07:05:34;;;;;;;3.13;2.13;;;;;;;6.25;100.00;95810.28;5070567;28;20777;-71
2022/12/25 07:08:01;;;;;;;2.28;1.90;;;;;;;6.28;100.00;95805.84;5073050;28;24450;-71
2022/12/25 07:10:27;;;;;;;5.30;2.23;;;;;;;6.25;100.00;95811.13;5070923;28;24450;-71
2022/12/25 07:12:54;;;;;;;2.70;2.20;;;;;;;6.30;100.00;95805.75;5068222;28;20786;-71
2022/12/25 07:15:21;;;;;;;2.22;2.03;;;;;;;6.26;100.00;95812.78;5073218;28;20784;-71
2022/12/25 07:17:48;;;;;;;2.22;2.03;;;;;;;6.29;100.00;95816.97;5068569;28;20833;-71
2022/12/25 07:20:14;;;;;;;2.80;2.07;;;;;;;6.27;100.00;95814.47;5069870;28;24438;-71
2022/12/25 07:22:41;;;;;;;2.33;1.90;;;;;;;6.33;100.00;95805.63;5066023;28;21152;-71
2022/12/25 07:25:08;;;;;;;4.83;2.30;;;;;;;6.32;100.00;95809.13;5071456;28;24474;-71
2022/12/25 07:27:34;;;;;;;4.50;2.70;;;;;;;6.26;100.00;95806.81;5072633;28;24536;-71
2022/12/25 07:30:01;;;;;;;2.63;2.25;;;;;;;6.30;100.00;95798.91;5069631;28;24442;-71
2022/12/25 07:32:31;;;;;;;3.38;2.60;;;;;;;6.23;100.00;95806.94;5064860;28;24454;-71
2022/12/25 07:34:57;;;;;;;4.30;2.53;;;;;;;6.22;100.00;95800.97;5070659;28;20850;-71
2022/12/25 07:37:24;;;;;;;2.63;2.05;;;;;;;6.23;100.00;95800.09;5066817;28;24446;-71
2022/12/25 07:39:50;;;;;;;2.30;1.90;;;;;;;6.30;100.00;95793.75;5070923;28;24451;-71
2022/12/25 07:42:17;;;;;;;7.90;6.03;;;;;;;6.24;100.00;95799.19;5065921;28;24442;-71
2022/12/25 07:44:43;;;;;;;6.97;5.25;;;;;;;6.25;100.00;95798.25;5073830;28;24454;-71
2022/12/25 07:47:10;;;;;;;2.80;2.40;;;;;;;6.27;100.00;95803.34;5069710;28;24531;-71
2022/12/25 07:49:38;;;;;;;3.08;2.10;;;;;;;6.27;100.00;95791.31;5068959;28;24458;-71
2022/12/25 07:52:05;;;;;;;3.25;2.10;;;;;;;6.28;100.00;95798.13;5067936;28;24443;-71
2022/12/25 07:54:31;;;;;;;2.20;1.98;;;;;;;6.27;100.00;95799.03;5066701;28;24457;-71
2022/12/25 07:56:57;;;;;;;3.65;2.03;;;;;;;6.31;100.00;95799.75;5070555;28;24449;-71
2022/12/25 07:59:24;;;;;;;4.65;2.30;;;;;;;6.35;100.00;95803.84;5076814;28;24453;-71
2022/12/25 08:01:50;;;;;;;3.35;2.00;;;;;;;6.39;100.00;95807.94;5070260;28;24431;-71
2022/12/25 08:04:17;;;;;;;4.75;2.10;;;;;;;6.46;100.00;95809.31;5065572;28;24447;-69
2022/12/25 08:06:45;;;;;;;2.22;2.03;;;;;;;6.41;100.00;95821.53;5063593;28;24457;-72
2022/12/25 08:09:12;;;;;;;2.50;1.80;;;;;;;6.46;100.00;95821.34;5063390;28;21412;-72
2022/12/25 08:11:39;;;;;;;3.00;2.10;;;;;;;6.46;100.00;95811.91;5066700;28;24445;-72
2022/12/25 08:14:06;;;;;;;2.40;1.73;;;;;;;6.51;100.00;95819.41;5063177;28;20790;-72
2022/12/25 08:16:33;;;;;;;2.40;2.10;;;;;;;6.47;100.00;95813.56;5066414;28;25038;-72
2022/12/25 08:18:59;;;;;;;3.72;2.10;;;;;;;6.51;100.00;95815.09;5064296;28;24449;-72
2022/12/25 08:21:26;;;;;;;2.30;2.05;;;;;;;6.60;100.00;95816.41;5070536;28;24438;-71
2022/12/25 08:23:54;;;;;;;2.80;2.20;;;;;;;6.67;100.00;95816.94;5061878;28;24440;-73
2022/12/25 08:26:22;;;;;;;3.03;2.30;;;;;;;6.72;100.00;95813.25;5070723;28;24450;-71
2022/12/25 08:28:49;;;;;;;2.22;1.90;;;;;;;6.76;100.00;95821.69;5068174;28;20785;-72
2022/12/25 08:31:18;;;;;;;2.42;1.95;;;;;;;6.78;100.00;95822.41;5070693;28;24453;-72
2022/12/25 08:33:45;;;;;;;2.28;1.90;;;;;;;6.83;100.00;95825.63;5070127;28;25281;-72
2022/12/25 08:36:13;;;;;;;3.38;2.22;;;;;;;6.79;100.00;95835.25;5070395;28;24450;-72
2022/12/25 08:38:40;;;;;;;3.17;2.40;;;;;;;6.81;100.00;95830.00;5079777;28;24805;-73
2022/12/25 08:41:08;;;;;;;3.65;2.03;;;;;;;6.82;100.00;95823.94;5074877;28;20800;-72
2022/12/25 08:43:34;;;;;;;2.75;2.15;;;;;;;6.83;100.00;95835.94;5076904;28;24441;-72
2022/12/25 08:46:01;;;;;;;3.13;2.08;;;;;;;6.94;100.00;95831.09;5073867;28;20773;-71
2022/12/25 08:48:28;;;;;;;3.38;2.40;;;;;;;6.99;100.00;95820.59;5072397;28;20777;-71
2022/12/25 08:50:55;;;;;;;2.30;2.10;;;;;;;7.07;100.00;95815.06;5074528;28;24442;-72
2022/12/25 08:53:22;;;;;;;2.70;2.22;;;;;;;7.19;100.00;95788.69;5074068;28;24470;-71
2022/12/25 08:55:49;;;;;;;2.85;2.47;;;;;;;7.34;100.00;95782.81;5065053;28;21185;-72
2022/12/25 08:58:17;;;;;;;3.80;2.78;;;;;;;7.37;100.00;95780.06;5071553;28;20782;-71
2022/12/25 09:00:43;;;;;;;2.72;2.33;;;;;;;7.37;100.00;95774.91;5068651;28;24438;-72
2022/12/25 09:03:09;;;;;;;4.75;2.70;;;;;;;7.41;100.00;95779.00;5079255;28;25010;-71
2022/12/25 09:05:37;;;;;;;5.72;2.88;;;;;;;7.49;100.00;95792.34;5069981;28;24453;-72
2022/12/25 09:08:03;;;;;;;3.25;2.42;;;;;;;7.60;100.00;95794.41;5068112;28;20787;-72
2022/12/25 09:10:30;;;;;;;4.28;2.90;;;;;;;7.68;100.00;95800.00;5070922;28;24434;-71
2022/12/25 09:12:56;;;;;;;3.25;2.42;;;;;;;7.71;100.00;95793.81;5074994;28;24461;-72
2022/12/25 09:15:24;;;;;;;3.30;2.80;;;;;;;7.70;100.00;95805.88;5075985;28;24442;-72
2022/12/25 09:17:51;;;;;;;4.80;3.38;;;;;;;7.82;100.00;95804.41;5067210;28;21446;-71
2022/12/25 09:20:17;;;;;;;3.25;2.90;;;;;;;8.05;100.00;95798.09;5066316;28;24999;-70
2022/12/25 09:22:44;;;;;;;4.10;3.00;;;;;;;8.30;100.00;95799.34;5073103;28;24434;-71
2022/12/25 09:25:11;;;;;;;4.78;3.30;;;;;;;8.38;100.00;95802.38;5072854;28;20773;-71
2022/12/25 09:27:38;;;;;;;4.18;3.20;;;;;;;8.54;100.00;95807.59;5073704;28;24441;-71
2022/12/25 09:30:05;;;;;;;3.85;2.92;;;;;;;8.34;100.00;95806.84;5074500;28;24891;-71
2022/12/25 09:32:33;;;;;;;2.97;2.67;;;;;;;8.45;100.00;95814.91;5069270;28;24512;-72
2022/12/25 09:35:00;;;;;;;3.80;2.95;;;;;;;8.62;100.00;95813.97;5064220;28;24465;-71
2022/12/25 09:37:26;;;;;;;4.80;2.75;;;;;;;8.75;100.00;95819.34;5069299;28;24485;-72
2022/12/25 09:39:53;;;;;;;4.07;3.33;;;;;;;8.87;100.00;95805.72;5068139;28;24984;-72
2022/12/25 09:42:22;;;;;;;3.22;2.92;;;;;;;9.03;100.00;95807.47;5067523;28;24530;-70
2022/12/25 09:44:53;;;;;;;4.20;2.60;;;;;;;9.17;100.00;95810.09;5073731;28;24441;-73
2022/12/25 09:47:22;;;;;;;4.35;3.13;;;;;;;9.34;100.00;95807.38;5080550;28;20673;-73
2022/12/25 09:49:57;;;;;;;3.80;2.95;;;;;;;9.45;100.00;95794.69;5079261;28;24430;-73
2022/12/25 09:52:28;;;;;;;9.02;3.30;;;;;;;9.73;100.00;95811.16;5076051;28;24434;-72
2022/12/25 09:55:00;;;;;;;3.58;3.22;;;;;;;9.81;100.00;95805.53;5071682;28;20822;-72
2022/12/25 09:57:26;;;;;;;3.60;3.13;;;;;;;10.00;100.00;95792.34;5071988;28;21412;-72
2022/12/25 09:59:54;;;;;;;6.70;3.72;;;;;;;10.08;100.00;95797.88;5067361;28;24453;-73
2022/12/25 10:02:39;;;;;;;4.72;3.13;;;;;;;10.00;100.00;95782.81;5066537;28;24555;-72
2022/12/25 10:05:20;;;;;;;3.83;3.43;;;;;;;10.07;100.00;95785.88;5068348;28;24463;-73
2022/12/25 10:07:57;;;;;;;5.10;3.60;;;;;;;10.08;100.00;95782.34;5060327;28;24532;-72
2022/12/25 10:10:40;;;;;;;4.18;3.67;;;;;;;10.18;100.00;95784.28;5082153;28;24429;-72
2022/12/25 10:13:19;;;;;;;4.25;3.83;;;;;;;10.12;100.00;95784.69;5070134;28;25011;-76
2022/12/25 10:15:54;;;;;;;4.00;3.40;;;;;;;10.32;100.00;95786.06;5073114;28;24431;-73
2022/12/25 10:18:38;;;;;;;3.17;2.90;;;;;;;10.52;100.00;95779.66;5081721;28;24437;-73
2022/12/25 10:21:10;;;;;;;4.28;3.10;;;;;;;10.59;100.00;95782.69;5083555;28;24429;-73
2022/12/25 10:23:39;;;;;;;4.38;3.30;;;;;;;10.47;100.00;95770.53;5067445;28;24433;-73
2022/12/25 10:26:14;;;;;;;4.20;3.33;;;;;;;10.53;100.00;95762.34;5075178;28;24434;-73
2022/12/25 10:28:43;;;;;;;4.85;3.65;;;;;;;10.73;100.00;95763.72;5076258;28;24426;-73
2022/12/25 10:31:18;;;;;;;7.50;3.50;;;;;;;10.81;100.00;95759.69;5077366;28;24430;-73
2022/12/25 10:33:45;;;;;;;4.40;3.20;;;;;;;10.79;100.00;95750.34;5088460;28;24483;-73
2022/12/25 10:36:15;;;;;;;4.00;3.40;;;;;;;10.70;100.00;95748.34;5068721;28;24509;-73
2022/12/25 10:38:42;;;;;;;4.70;3.67;;;;;;;10.86;100.00;95757.66;5087059;28;24442;-73
2022/12/25 10:41:21;;;;;;;6.30;4.05;;;;;;;10.66;100.00;95747.72;5079238;28;24434;-73
2022/12/25 10:43:49;;;;;;;5.43;3.70;;;;;;;10.60;100.00;95745.50;5076715;28;25026;-72
2022/12/25 10:46:17;;;;;;;3.75;3.25;;;;;;;10.57;100.00;95741.38;5071303;28;24446;-73
2022/12/25 10:48:49;;;;;;;4.15;3.40;;;;;;;10.47;100.00;95734.28;5074566;28;24802;-73
2022/12/25 10:51:28;;;;;;;6.00;3.43;;;;;;;10.50;100.00;95729.72;5084421;28;24527;-74
2022/12/25 10:53:55;;;;;;;5.73;3.33;;;;;;;10.41;100.00;95728.53;5064069;28;24639;-74
2022/12/25 10:56:23;;;;;;;4.03;3.17;;;;;;;10.44;100.00;95730.09;5069996;28;21311;-72
2022/12/25 10:58:50;;;;;;;3.58;3.13;;;;;;;10.30;100.00;95723.19;5067195;28;24454;-72
2022/12/25 11:01:17;;;;;;;3.53;3.20;;;;;;;10.15;100.00;95729.31;5065784;28;24431;-72
2022/12/25 11:03:47;;;;;;;3.60;3.30;;;;;;;10.08;100.00;95725.44;5070810;28;24446;-72
2022/12/25 11:06:24;;;;;;;3.67;3.13;;;;;;;10.12;100.00;95729.47;5068674;28;24809;-71
2022/12/25 11:08:54;;;;;;;4.72;3.13;;;;;;;10.02;100.00;95723.22;5068106;28;24531;-72
2022/12/25 11:11:21;;;;;;;20.48;3.55;;;;;;;10.06;100.00;95724.69;5065117;28;24545;-72
2022/12/25 11:13:50;;;;;;;3.42;3.00;;;;;;;10.02;100.00;95731.00;5072204;28;24958;-72
2022/12/25 11:16:26;;;;;;;4.00;3.20;;;;;;;10.13;100.00;95720.81;5069828;28;24540;-73
2022/12/25 11:18:54;;;;;;;5.03;3.10;;;;;;;10.09;100.00;95719.34;5068072;28;24896;-72
2022/12/25 11:21:23;;;;;;;4.38;3.17;;;;;;;10.05;100.00;95703.19;5076528;28;24442;-72
2022/12/25 11:23:57;;;;;;;4.47;3.00;;;;;;;10.06;100.00;95707.41;5070082;28;24446;-72
2022/12/25 11:26:24;;;;;;;4.90;3.03;;;;;;;10.08;100.00;95694.38;5075164;28;24446;-72
2022/12/25 11:28:51;;;;;;;3.45;2.65;;;;;;;10.10;100.00;95695.94;5071387;28;25030;-72
2022/12/25 11:31:19;;;;;;;4.95;3.20;;;;;;;10.27;100.00;95691.50;5069304;28;24437;-72
2022/12/25 11:33:52;;;;;;;3.63;2.95;;;;;;;10.46;100.00;95689.44;5063984;28;24482;-71
2022/12/25 11:36:25;;;;;;;3.10;2.40;;;;;;;10.50;100.00;95683.13;5071567;28;24438;-72
2022/12/25 11:38:52;;;;;;;3.60;2.60;;;;;;;10.75;100.00;95677.16;5066065;28;24450;-71
2022/12/25 11:41:22;;;;;;;3.10;2.42;;;;;;;10.92;100.00;95678.69;5066575;28;24443;-72
2022/12/25 11:43:53;;;;;;;3.53;2.70;;;;;;;10.92;100.00;95683.03;5067319;28;24847;-72
2022/12/25 11:46:23;;;;;;;2.83;2.28;;;;;;;10.98;100.00;95675.69;5066623;28;24550;-72
2022/12/25 11:48:55;;;;;;;3.72;2.42;;;;;;;11.12;100.00;95674.75;5063272;28;24813;-72
2022/12/25 11:51:24;;;;;;;3.25;2.35;;;;;;;11.10;100.00;95680.06;5063402;28;24528;-71
2022/12/25 11:53:55;;;;;;;3.42;2.22;;;;;;;11.01;100.00;95666.88;5078976;28;24462;-71
2022/12/25 11:56:24;;;;;;;2.58;2.10;;;;;;;11.13;100.00;95653.13;5058027;28;24434;-72
2022/12/25 11:58:53;;;;;;;2.20;2.00;;;;;;;11.06;100.00;95650.09;5070396;28;24995;-72
2022/12/25 12:01:31;;;;;;;3.13;2.15;;;;;;;11.13;100.00;95642.75;5066870;28;24476;-72
2022/12/25 12:04:00;;;;;;;3.33;2.10;;;;;;;11.08;100.00;95630.06;5060862;28;24457;-72
2022/12/25 12:06:32;;;;;;;4.10;2.05;;;;;;;10.98;100.00;95641.19;5062337;28;24435;-71
2022/12/25 12:09:11;;;;;;;4.40;1.73;;;;;;;11.05;100.00;95634.63;5071938;28;24442;-72
2022/12/25 12:11:43;;;;;;;2.10;1.83;;;;;;;11.04;100.00;95626.03;5063584;28;25019;-72
2022/12/25 12:14:24;;;;;;;3.00;1.70;;;;;;;11.17;100.00;95625.22;5068903;28;24461;-72
2022/12/25 12:16:51;;;;;;;2.78;1.92;;;;;;;11.19;100.00;95619.00;5063991;28;24453;-72
2022/12/25 12:19:26;;;;;;;3.23;1.80;;;;;;;11.29;100.00;95614.03;5082073;28;25045;-72
2022/12/25 12:21:56;;;;;;;4.17;1.80;;;;;;;11.29;100.00;95621.78;5068379;28;25043;-72
2022/12/25 12:24:29;;;;;;;3.40;1.70;;;;;;;11.22;100.00;95621.38;5060276;28;25042;-71
2022/12/25 12:27:04;;;;;;;2.33;1.58;;;;;;;11.23;100.00;95619.63;5067515;28;24458;-72
2022/12/25 12:29:36;;;;;;;2.47;1.60;;;;;;;11.29;100.00;95619.22;5065889;28;24434;-72
2022/12/25 12:32:05;;;;;;;1.65;1.42;;;;;;;11.38;100.00;95622.00;5070567;28;24439;-72
2022/12/25 12:34:41;;;;;;;2.38;1.48;;;;;;;11.60;100.00;95626.53;5068513;28;24458;-73
2022/12/25 12:37:17;;;;;;;2.30;1.30;;;;;;;11.66;100.00;95630.47;5074413;28;24472;-73
2022/12/25 12:39:45;;;;;;;1.70;1.30;;;;;;;11.73;100.00;95623.94;5061507;28;24502;-73
2022/12/25 12:42:14;;;;;;;1.30;1.20;;;;;;;11.75;100.00;95635.00;5069261;28;24972;-73
2022/12/25 12:44:41;;;;;;;2.05;1.20;;;;;;;11.78;100.00;95619.25;5071612;28;24446;-74
2022/12/25 12:47:28;;;;;;;3.38;1.27;;;;;;;11.76;100.00;95621.13;5068607;28;24442;-74
2022/12/25 12:49:58;;;;;;;2.57;1.50;;;;;;;11.76;100.00;95609.94;5062160;28;24438;-74
2022/12/25 12:52:30;;;;;;;1.85;1.33;;;;;;;11.96;100.00;95614.56;5062077;28;24488;-74
2022/12/25 12:55:01;;;;;;;1.38;1.02;;;;;;;11.95;100.00;95619.88;5068712;28;25026;-74
2022/12/25 12:57:31;;;;;;;2.75;1.15;;;;;;;11.95;100.00;95607.72;5082846;28;24460;-74
2022/12/25 13:00:00;;;;;;;1.23;0.80;;;;;;;11.94;100.00;95600.03;5079698;28;24991;-74
2022/12/25 13:02:48;;;;;;;1.95;1.10;;;;;;;11.91;100.00;95597.66;5067690;28;24444;-73
2022/12/25 13:05:20;;;;;;;1.67;1.20;;;;;;;11.90;100.00;95603.78;5071191;28;24855;-74
2022/12/25 13:07:56;;;;;;;4.20;1.15;;;;;;;11.99;100.00;95597.94;5066749;28;24438;-73
2022/12/25 13:10:29;;;;;;;2.00;1.02;;;;;;;11.92;100.00;95601.91;5063718;28;24454;-74
2022/12/25 13:12:59;;;;;;;1.48;0.90;;;;;;;12.01;100.00;95609.03;5077051;28;24423;-74
2022/12/25 13:15:28;;;;;;;2.00;1.10;;;;;;;12.01;100.00;95607.25;5074975;28;24455;-74
2022/12/25 13:17:57;;;;;;;1.43;0.90;;;;;;;11.96;100.00;95608.53;5077436;28;24446;-74
2022/12/25 13:20:38;;;;;;;1.58;0.88;;;;;;;11.96;100.00;95609.38;5079349;28;24999;-74
2022/12/25 13:23:13;;;;;;;1.00;0.80;;;;;;;12.02;100.00;95602.94;5071459;28;24442;-72
2022/12/25 13:25:41;;;;;;;1.08;0.82;;;;;;;12.01;100.00;95607.25;5070709;28;24430;-72
2022/12/25 13:28:13;;;;;;;0.90;0.70;;;;;;;11.91;100.00;95603.69;5075463;28;24434;-73